sensor_id;sensor_type;location;lat;lon;timestamp;temperature;humidity
16643;DHT22;8435;52.184;5.406;2022-11-10T00:00:32;13.20;99.90
16643;DHT22;8435;52.184;5.406;2022-11-10T00:03:00;13.20;99.90
16643;DHT22;8435;52.184;5.406;2022-11-10T00:05:27;13.20;99.90
16643;DHT22;8435;52.184;5.406;2022-11-10T00:07:54;13.20;99.90
16643;DHT22;8435;52.184;5.406;2022-11-10T00:10:21;13.10;99.90
16643;DHT22;8435;52.184;5.406;2022-11-10T00:12:49;13.10;99.90
16643;DHT22;8435;52.184;5.406;2022-11-10T00:15:16;13.10;99.90
16643;DHT22;8435;52.184;5.406;2022-11-10T00:18:01;13.10;99.90
16643;DHT22;8435;52.184;5.406;2022-11-10T00:20:28;13.10;99.90
16643;DHT22;8435;52.184;5.406;2022-11-10T00:22:55;13.00;99.90
16643;DHT22;8435;52.184;5.406;2022-11-10T00:25:22;13.00;99.90
16643;DHT22;8435;52.184;5.406;2022-11-10T00:27:50;13.00;99.90
16643;DHT22;8435;52.184;5.406;2022-11-10T00:30:17;12.90;99.90
16643;DHT22;8435;52.184;5.406;2022-11-10T00:32:45;12.90;99.90
16643;DHT22;8435;52.184;5.406;2022-11-10T00:35:13;12.90;99.90
16643;DHT22;8435;52.184;5.406;2022-11-10T00:37:40;12.90;99.90
16643;DHT22;8435;52.184;5.406;2022-11-10T00:40:08;12.80;99.90
16643;DHT22;8435;52.184;5.406;2022-11-10T00:42:46;12.80;99.90
16643;DHT22;8435;52.184;5.406;2022-11-10T00:45:17;12.80;99.90
16643;DHT22;8435;52.184;5.406;2022-11-10T00:47:44;12.80;99.90
16643;DHT22;8435;52.184;5.406;2022-11-10T00:50:11;12.80;99.90
16643;DHT22;8435;52.184;5.406;2022-11-10T00:52:38;12.70;99.90
16643;DHT22;8435;52.184;5.406;2022-11-10T00:55:06;12.70;99.90
16643;DHT22;8435;52.184;5.406;2022-11-10T00:57:33;12.70;99.90
16643;DHT22;8435;52.184;5.406;2022-11-10T00:59:59;12.70;99.90
16643;DHT22;8435;52.184;5.406;2022-11-10T01:02:28;12.70;99.90
16643;DHT22;8435;52.184;5.406;2022-11-10T01:04:55;12.60;99.90
16643;DHT22;8435;52.184;5.406;2022-11-10T01:07:21;12.60;99.90
16643;DHT22;8435;52.184;5.406;2022-11-10T01:09:48;12.60;99.90
16643;DHT22;8435;52.184;5.406;2022-11-10T01:12:15;12.60;99.90
16643;DHT22;8435;52.184;5.406;2022-11-10T01:14:42;12.60;99.90
16643;DHT22;8435;52.184;5.406;2022-11-10T01:17:09;12.60;99.90
16643;DHT22;8435;52.184;5.406;2022-11-10T01:19:37;12.60;99.90
16643;DHT22;8435;52.184;5.406;2022-11-10T01:22:06;12.60;99.90
16643;DHT22;8435;52.184;5.406;2022-11-10T01:24:33;12.60;99.90
16643;DHT22;8435;52.184;5.406;2022-11-10T01:27:00;12.60;99.90
16643;DHT22;8435;52.184;5.406;2022-11-10T01:29:26;12.60;99.90
16643;DHT22;8435;52.184;5.406;2022-11-10T01:31:53;12.60;99.90
16643;DHT22;8435;52.184;5.406;2022-11-10T01:34:20;12.50;99.90
16643;DHT22;8435;52.184;5.406;2022-11-10T01:36:48;12.50;99.90
16643;DHT22;8435;52.184;5.406;2022-11-10T01:39:15;12.50;99.90
16643;DHT22;8435;52.184;5.406;2022-11-10T01:41:42;12.50;99.90
16643;DHT22;8435;52.184;5.406;2022-11-10T01:44:13;12.50;99.90
16643;DHT22;8435;52.184;5.406;2022-11-10T01:46:42;12.50;99.90
16643;DHT22;8435;52.184;5.406;2022-11-10T01:49:10;12.50;99.90
16643;DHT22;8435;52.184;5.406;2022-11-10T01:51:41;12.50;99.90
16643;DHT22;8435;52.184;5.406;2022-11-10T01:54:14;12.50;99.90
16643;DHT22;8435;52.184;5.406;2022-11-10T01:56:44;12.50;99.90
16643;DHT22;8435;52.184;5.406;2022-11-10T01:59:16;12.50;99.90
16643;DHT22;8435;52.184;5.406;2022-11-10T02:01:46;12.50;99.90
16643;DHT22;8435;52.184;5.406;2022-11-10T02:04:15;12.40;99.90
16643;DHT22;8435;52.184;5.406;2022-11-10T02:06:47;12.40;99.90
16643;DHT22;8435;52.184;5.406;2022-11-10T02:09:16;12.40;99.90
16643;DHT22;8435;52.184;5.406;2022-11-10T02:11:43;12.40;99.90
16643;DHT22;8435;52.184;5.406;2022-11-10T02:14:11;12.40;99.90
16643;DHT22;8435;52.184;5.406;2022-11-10T02:16:39;12.40;99.90
16643;DHT22;8435;52.184;5.406;2022-11-10T02:19:17;12.40;99.90
16643;DHT22;8435;52.184;5.406;2022-11-10T02:21:46;12.40;99.90
16643;DHT22;8435;52.184;5.406;2022-11-10T02:24:13;12.40;99.90
16643;DHT22;8435;52.184;5.406;2022-11-10T02:26:43;12.40;99.90
16643;DHT22;8435;52.184;5.406;2022-11-10T02:29:11;12.40;99.90
16643;DHT22;8435;52.184;5.406;2022-11-10T02:31:38;12.40;99.90
16643;DHT22;8435;52.184;5.406;2022-11-10T02:34:05;12.50;99.90
16643;DHT22;8435;52.184;5.406;2022-11-10T02:36:32;12.40;99.90
16643;DHT22;8435;52.184;5.406;2022-11-10T02:39:00;12.40;99.90
16643;DHT22;8435;52.184;5.406;2022-11-10T02:41:27;12.40;99.90
16643;DHT22;8435;52.184;5.406;2022-11-10T02:43:56;12.40;99.90
16643;DHT22;8435;52.184;5.406;2022-11-10T02:46:24;12.40;99.90
16643;DHT22;8435;52.184;5.406;2022-11-10T02:48:50;12.40;99.90
16643;DHT22;8435;52.184;5.406;2022-11-10T02:51:17;12.40;99.90
16643;DHT22;8435;52.184;5.406;2022-11-10T02:53:44;12.40;99.90
16643;DHT22;8435;52.184;5.406;2022-11-10T02:56:12;12.40;99.90
16643;DHT22;8435;52.184;5.406;2022-11-10T02:58:39;12.40;99.90
16643;DHT22;8435;52.184;5.406;2022-11-10T03:01:08;12.40;99.90
16643;DHT22;8435;52.184;5.406;2022-11-10T03:03:35;12.30;99.90
16643;DHT22;8435;52.184;5.406;2022-11-10T03:06:02;12.40;99.90
16643;DHT22;8435;52.184;5.406;2022-11-10T03:08:29;12.30;99.90
16643;DHT22;8435;52.184;5.406;2022-11-10T03:10:56;12.30;99.90
16643;DHT22;8435;52.184;5.406;2022-11-10T03:13:24;12.30;99.90
16643;DHT22;8435;52.184;5.406;2022-11-10T03:15:52;12.30;99.90
16643;DHT22;8435;52.184;5.406;2022-11-10T03:18:18;12.30;99.90
16643;DHT22;8435;52.184;5.406;2022-11-10T03:20:47;12.30;99.90
16643;DHT22;8435;52.184;5.406;2022-11-10T03:23:14;12.20;99.90
16643;DHT22;8435;52.184;5.406;2022-11-10T03:25:41;12.20;99.90
16643;DHT22;8435;52.184;5.406;2022-11-10T03:28:08;12.20;99.90
16643;DHT22;8435;52.184;5.406;2022-11-10T03:30:37;12.20;99.90
16643;DHT22;8435;52.184;5.406;2022-11-10T03:33:04;12.20;99.90
16643;DHT22;8435;52.184;5.406;2022-11-10T03:35:31;12.20;99.90
16643;DHT22;8435;52.184;5.406;2022-11-10T03:37:58;12.10;99.90
16643;DHT22;8435;52.184;5.406;2022-11-10T03:40:25;12.10;99.90
16643;DHT22;8435;52.184;5.406;2022-11-10T03:42:52;12.10;99.90
16643;DHT22;8435;52.184;5.406;2022-11-10T03:45:19;12.10;99.90
16643;DHT22;8435;52.184;5.406;2022-11-10T03:47:48;12.10;99.90
16643;DHT22;8435;52.184;5.406;2022-11-10T03:50:18;12.10;99.90
16643;DHT22;8435;52.184;5.406;2022-11-10T03:52:45;12.10;99.90
16643;DHT22;8435;52.184;5.406;2022-11-10T03:55:14;12.10;99.90
16643;DHT22;8435;52.184;5.406;2022-11-10T03:57:41;12.10;99.90
16643;DHT22;8435;52.184;5.406;2022-11-10T04:00:15;12.10;99.90
16643;DHT22;8435;52.184;5.406;2022-11-10T04:02:42;12.10;99.90
16643;DHT22;8435;52.184;5.406;2022-11-10T04:05:10;12.00;99.90
16643;DHT22;8435;52.184;5.406;2022-11-10T04:07:58;12.00;99.90
16643;DHT22;8435;52.184;5.406;2022-11-10T04:10:43;12.00;99.90
16643;DHT22;8435;52.184;5.406;2022-11-10T04:13:16;12.00;99.90
16643;DHT22;8435;52.184;5.406;2022-11-10T04:16:00;12.00;99.90
16643;DHT22;8435;52.184;5.406;2022-11-10T04:18:30;11.90;99.90
16643;DHT22;8435;52.184;5.406;2022-11-10T04:20:59;11.90;99.90
16643;DHT22;8435;52.184;5.406;2022-11-10T04:23:28;11.90;99.90
16643;DHT22;8435;52.184;5.406;2022-11-10T04:26:00;11.90;99.90
16643;DHT22;8435;52.184;5.406;2022-11-10T04:28:45;11.90;99.90
16643;DHT22;8435;52.184;5.406;2022-11-10T04:31:13;11.90;99.90
16643;DHT22;8435;52.184;5.406;2022-11-10T04:33:41;11.90;99.90
16643;DHT22;8435;52.184;5.406;2022-11-10T04:36:11;11.90;99.90
16643;DHT22;8435;52.184;5.406;2022-11-10T04:38:39;11.90;99.90
16643;DHT22;8435;52.184;5.406;2022-11-10T04:41:06;11.90;99.90
16643;DHT22;8435;52.184;5.406;2022-11-10T04:43:34;11.90;99.90
16643;DHT22;8435;52.184;5.406;2022-11-10T04:46:01;11.90;99.90
16643;DHT22;8435;52.184;5.406;2022-11-10T04:48:29;11.90;99.90
16643;DHT22;8435;52.184;5.406;2022-11-10T04:50:55;11.90;99.90
16643;DHT22;8435;52.184;5.406;2022-11-10T04:53:23;11.90;99.90
16643;DHT22;8435;52.184;5.406;2022-11-10T04:55:53;11.90;99.90
16643;DHT22;8435;52.184;5.406;2022-11-10T04:58:20;11.90;99.90
16643;DHT22;8435;52.184;5.406;2022-11-10T05:00:47;11.90;99.90
16643;DHT22;8435;52.184;5.406;2022-11-10T05:03:16;11.90;99.90
16643;DHT22;8435;52.184;5.406;2022-11-10T05:05:43;11.90;99.90
16643;DHT22;8435;52.184;5.406;2022-11-10T05:08:09;11.90;99.90
16643;DHT22;8435;52.184;5.406;2022-11-10T05:10:38;11.90;99.90
16643;DHT22;8435;52.184;5.406;2022-11-10T05:13:05;11.90;99.90
16643;DHT22;8435;52.184;5.406;2022-11-10T05:15:32;11.90;99.90
16643;DHT22;8435;52.184;5.406;2022-11-10T05:17:59;11.90;99.90
16643;DHT22;8435;52.184;5.406;2022-11-10T05:20:26;11.90;99.90
16643;DHT22;8435;52.184;5.406;2022-11-10T05:22:53;11.90;99.90
16643;DHT22;8435;52.184;5.406;2022-11-10T05:25:40;11.90;99.90
16643;DHT22;8435;52.184;5.406;2022-11-10T05:28:08;11.80;99.90
16643;DHT22;8435;52.184;5.406;2022-11-10T05:30:35;11.80;99.90
16643;DHT22;8435;52.184;5.406;2022-11-10T05:33:02;11.80;99.90
16643;DHT22;8435;52.184;5.406;2022-11-10T05:35:29;11.80;99.90
16643;DHT22;8435;52.184;5.406;2022-11-10T05:37:56;11.90;99.90
16643;DHT22;8435;52.184;5.406;2022-11-10T05:40:23;11.80;99.90
16643;DHT22;8435;52.184;5.406;2022-11-10T05:42:53;11.80;99.90
16643;DHT22;8435;52.184;5.406;2022-11-10T05:45:21;11.80;99.90
16643;DHT22;8435;52.184;5.406;2022-11-10T05:47:49;11.80;99.90
16643;DHT22;8435;52.184;5.406;2022-11-10T05:50:17;11.80;99.90
16643;DHT22;8435;52.184;5.406;2022-11-10T05:52:45;11.80;99.90
16643;DHT22;8435;52.184;5.406;2022-11-10T05:55:12;11.80;99.90
16643;DHT22;8435;52.184;5.406;2022-11-10T05:57:41;11.80;99.90
16643;DHT22;8435;52.184;5.406;2022-11-10T06:00:11;11.80;99.90
16643;DHT22;8435;52.184;5.406;2022-11-10T06:02:38;11.80;99.90
16643;DHT22;8435;52.184;5.406;2022-11-10T06:05:06;11.80;99.90
16643;DHT22;8435;52.184;5.406;2022-11-10T06:07:32;11.80;99.90
16643;DHT22;8435;52.184;5.406;2022-11-10T06:10:01;11.80;99.90
16643;DHT22;8435;52.184;5.406;2022-11-10T06:12:28;11.80;99.90
16643;DHT22;8435;52.184;5.406;2022-11-10T06:14:55;11.70;99.90
16643;DHT22;8435;52.184;5.406;2022-11-10T06:17:30;11.70;99.90
16643;DHT22;8435;52.184;5.406;2022-11-10T06:19:57;11.70;99.90
16643;DHT22;8435;52.184;5.406;2022-11-10T06:22:24;11.70;99.90
16643;DHT22;8435;52.184;5.406;2022-11-10T06:24:50;11.70;99.90
16643;DHT22;8435;52.184;5.406;2022-11-10T06:27:17;11.70;99.90
16643;DHT22;8435;52.184;5.406;2022-11-10T06:29:44;11.70;99.90
16643;DHT22;8435;52.184;5.406;2022-11-10T06:32:11;11.70;99.90
16643;DHT22;8435;52.184;5.406;2022-11-10T06:34:39;11.70;99.90
16643;DHT22;8435;52.184;5.406;2022-11-10T06:37:08;11.70;99.90
16643;DHT22;8435;52.184;5.406;2022-11-10T06:39:35;11.70;99.90
16643;DHT22;8435;52.184;5.406;2022-11-10T06:42:05;11.70;99.90
16643;DHT22;8435;52.184;5.406;2022-11-10T06:44:31;11.70;99.90
16643;DHT22;8435;52.184;5.406;2022-11-10T06:46:58;11.60;99.90
16643;DHT22;8435;52.184;5.406;2022-11-10T06:49:25;11.60;99.90
16643;DHT22;8435;52.184;5.406;2022-11-10T06:51:53;11.70;99.90
16643;DHT22;8435;52.184;5.406;2022-11-10T06:54:20;11.70;99.90
16643;DHT22;8435;52.184;5.406;2022-11-10T06:56:47;11.70;99.90
16643;DHT22;8435;52.184;5.406;2022-11-10T06:59:14;11.60;99.90
16643;DHT22;8435;52.184;5.406;2022-11-10T07:01:41;11.70;99.90
16643;DHT22;8435;52.184;5.406;2022-11-10T07:04:07;11.70;99.90
16643;DHT22;8435;52.184;5.406;2022-11-10T07:06:34;11.70;99.90
16643;DHT22;8435;52.184;5.406;2022-11-10T07:09:02;11.60;99.90
16643;DHT22;8435;52.184;5.406;2022-11-10T07:11:29;11.70;99.90
16643;DHT22;8435;52.184;5.406;2022-11-10T07:13:56;11.70;99.90
16643;DHT22;8435;52.184;5.406;2022-11-10T07:16:35;11.70;99.90
16643;DHT22;8435;52.184;5.406;2022-11-10T07:19:02;11.70;99.90
16643;DHT22;8435;52.184;5.406;2022-11-10T07:21:29;11.70;99.90
16643;DHT22;8435;52.184;5.406;2022-11-10T07:23:55;11.70;99.90
16643;DHT22;8435;52.184;5.406;2022-11-10T07:26:23;11.70;99.90
16643;DHT22;8435;52.184;5.406;2022-11-10T07:28:50;11.80;99.90
16643;DHT22;8435;52.184;5.406;2022-11-10T07:31:17;11.80;99.90
16643;DHT22;8435;52.184;5.406;2022-11-10T07:33:43;11.80;99.90
16643;DHT22;8435;52.184;5.406;2022-11-10T07:36:12;11.80;99.90
16643;DHT22;8435;52.184;5.406;2022-11-10T07:38:39;11.80;99.90
16643;DHT22;8435;52.184;5.406;2022-11-10T07:41:05;11.80;99.90
16643;DHT22;8435;52.184;5.406;2022-11-10T07:43:34;11.90;99.90
16643;DHT22;8435;52.184;5.406;2022-11-10T07:46:01;11.90;99.90
16643;DHT22;8435;52.184;5.406;2022-11-10T07:48:27;11.90;99.90
16643;DHT22;8435;52.184;5.406;2022-11-10T07:50:54;12.00;99.90
16643;DHT22;8435;52.184;5.406;2022-11-10T07:53:21;12.00;99.90
16643;DHT22;8435;52.184;5.406;2022-11-10T07:55:47;12.20;99.90
16643;DHT22;8435;52.184;5.406;2022-11-10T07:58:15;12.30;99.90
16643;DHT22;8435;52.184;5.406;2022-11-10T08:00:45;12.40;99.90
16643;DHT22;8435;52.184;5.406;2022-11-10T08:03:14;12.50;99.90
16643;DHT22;8435;52.184;5.406;2022-11-10T08:05:41;12.70;99.90
16643;DHT22;8435;52.184;5.406;2022-11-10T08:08:09;12.80;99.90
16643;DHT22;8435;52.184;5.406;2022-11-10T08:10:39;12.90;99.90
16643;DHT22;8435;52.184;5.406;2022-11-10T08:13:07;13.10;99.90
16643;DHT22;8435;52.184;5.406;2022-11-10T08:15:35;13.30;99.90
16643;DHT22;8435;52.184;5.406;2022-11-10T08:18:04;13.40;99.90
16643;DHT22;8435;52.184;5.406;2022-11-10T08:20:32;13.60;99.90
16643;DHT22;8435;52.184;5.406;2022-11-10T08:23:00;13.70;99.90
16643;DHT22;8435;52.184;5.406;2022-11-10T08:25:28;13.90;99.90
16643;DHT22;8435;52.184;5.406;2022-11-10T08:28:02;14.00;99.90
16643;DHT22;8435;52.184;5.406;2022-11-10T08:30:29;14.10;99.90
16643;DHT22;8435;52.184;5.406;2022-11-10T08:32:58;14.20;99.90
16643;DHT22;8435;52.184;5.406;2022-11-10T08:35:30;14.30;99.90
16643;DHT22;8435;52.184;5.406;2022-11-10T08:38:04;14.30;99.90
16643;DHT22;8435;52.184;5.406;2022-11-10T08:40:32;14.40;99.90
16643;DHT22;8435;52.184;5.406;2022-11-10T08:42:59;14.50;99.90
16643;DHT22;8435;52.184;5.406;2022-11-10T08:45:28;14.50;99.90
16643;DHT22;8435;52.184;5.406;2022-11-10T08:47:57;14.50;99.90
16643;DHT22;8435;52.184;5.406;2022-11-10T08:50:24;14.60;99.90
16643;DHT22;8435;52.184;5.406;2022-11-10T08:52:52;14.60;99.90
16643;DHT22;8435;52.184;5.406;2022-11-10T08:55:19;14.50;99.90
16643;DHT22;8435;52.184;5.406;2022-11-10T08:57:47;14.50;99.90
16643;DHT22;8435;52.184;5.406;2022-11-10T09:00:14;14.50;99.90
16643;DHT22;8435;52.184;5.406;2022-11-10T09:02:41;14.50;99.90
16643;DHT22;8435;52.184;5.406;2022-11-10T09:05:08;14.50;99.90
16643;DHT22;8435;52.184;5.406;2022-11-10T09:07:41;14.50;99.90
16643;DHT22;8435;52.184;5.406;2022-11-10T09:10:10;14.50;99.90
16643;DHT22;8435;52.184;5.406;2022-11-10T09:12:37;14.50;99.90
16643;DHT22;8435;52.184;5.406;2022-11-10T09:15:05;14.50;99.90
16643;DHT22;8435;52.184;5.406;2022-11-10T09:17:32;14.40;99.90
16643;DHT22;8435;52.184;5.406;2022-11-10T09:20:01;14.50;99.90
16643;DHT22;8435;52.184;5.406;2022-11-10T09:22:28;14.50;99.90
16643;DHT22;8435;52.184;5.406;2022-11-10T09:24:55;14.50;99.90
16643;DHT22;8435;52.184;5.406;2022-11-10T09:27:23;14.50;99.90
16643;DHT22;8435;52.184;5.406;2022-11-10T09:29:49;14.60;99.90
16643;DHT22;8435;52.184;5.406;2022-11-10T09:32:16;14.60;99.90
16643;DHT22;8435;52.184;5.406;2022-11-10T09:34:43;14.60;99.90
16643;DHT22;8435;52.184;5.406;2022-11-10T09:37:10;14.60;99.90
16643;DHT22;8435;52.184;5.406;2022-11-10T09:39:37;14.70;99.90
16643;DHT22;8435;52.184;5.406;2022-11-10T09:42:05;14.70;99.90
16643;DHT22;8435;52.184;5.406;2022-11-10T09:44:37;14.80;99.90
16643;DHT22;8435;52.184;5.406;2022-11-10T09:47:10;14.90;99.90
16643;DHT22;8435;52.184;5.406;2022-11-10T09:49:40;14.90;99.90
16643;DHT22;8435;52.184;5.406;2022-11-10T09:52:11;15.00;99.90
16643;DHT22;8435;52.184;5.406;2022-11-10T09:54:40;15.10;99.90
16643;DHT22;8435;52.184;5.406;2022-11-10T09:57:11;15.20;99.90
16643;DHT22;8435;52.184;5.406;2022-11-10T09:59:41;15.20;99.90
16643;DHT22;8435;52.184;5.406;2022-11-10T10:02:20;15.30;99.90
16643;DHT22;8435;52.184;5.406;2022-11-10T10:04:59;15.40;99.90
16643;DHT22;8435;52.184;5.406;2022-11-10T10:07:36;15.50;99.90
16643;DHT22;8435;52.184;5.406;2022-11-10T10:10:12;15.50;99.90
16643;DHT22;8435;52.184;5.406;2022-11-10T10:12:58;15.60;99.90
16643;DHT22;8435;52.184;5.406;2022-11-10T10:15:32;15.70;99.90
16643;DHT22;8435;52.184;5.406;2022-11-10T10:18:09;15.70;99.90
16643;DHT22;8435;52.184;5.406;2022-11-10T10:20:45;15.80;99.90
16643;DHT22;8435;52.184;5.406;2022-11-10T10:23:22;15.90;99.90
16643;DHT22;8435;52.184;5.406;2022-11-10T10:25:52;15.90;99.90
16643;DHT22;8435;52.184;5.406;2022-11-10T10:28:24;16.00;99.90
16643;DHT22;8435;52.184;5.406;2022-11-10T10:31:00;16.00;99.90
16643;DHT22;8435;52.184;5.406;2022-11-10T10:33:32;16.10;99.90
16643;DHT22;8435;52.184;5.406;2022-11-10T10:36:04;16.10;99.90
16643;DHT22;8435;52.184;5.406;2022-11-10T10:38:36;16.20;99.90
16643;DHT22;8435;52.184;5.406;2022-11-10T10:41:13;16.20;99.90
16643;DHT22;8435;52.184;5.406;2022-11-10T10:43:41;16.20;99.90
16643;DHT22;8435;52.184;5.406;2022-11-10T10:46:14;16.30;99.90
16643;DHT22;8435;52.184;5.406;2022-11-10T10:48:41;16.30;99.90
16643;DHT22;8435;52.184;5.406;2022-11-10T10:51:08;16.40;99.90
16643;DHT22;8435;52.184;5.406;2022-11-10T10:53:44;16.40;99.90
16643;DHT22;8435;52.184;5.406;2022-11-10T10:56:16;16.50;99.90
16643;DHT22;8435;52.184;5.406;2022-11-10T10:58:51;16.60;99.90
16643;DHT22;8435;52.184;5.406;2022-11-10T11:01:28;16.60;99.90
16643;DHT22;8435;52.184;5.406;2022-11-10T11:03:56;16.60;99.90
16643;DHT22;8435;52.184;5.406;2022-11-10T11:06:27;16.70;99.90
16643;DHT22;8435;52.184;5.406;2022-11-10T11:08:59;16.80;99.90
16643;DHT22;8435;52.184;5.406;2022-11-10T11:11:28;16.80;99.90
16643;DHT22;8435;52.184;5.406;2022-11-10T11:14:18;16.90;99.90
16643;DHT22;8435;52.184;5.406;2022-11-10T11:16:48;16.90;99.90
16643;DHT22;8435;52.184;5.406;2022-11-10T11:19:15;16.90;99.90
16643;DHT22;8435;52.184;5.406;2022-11-10T11:22:22;17.00;99.90
16643;DHT22;8435;52.184;5.406;2022-11-10T11:24:56;17.00;99.90
16643;DHT22;8435;52.184;5.406;2022-11-10T11:27:29;17.10;99.90
16643;DHT22;8435;52.184;5.406;2022-11-10T11:30:07;17.10;99.90
16643;DHT22;8435;52.184;5.406;2022-11-10T11:33:00;17.10;99.90
16643;DHT22;8435;52.184;5.406;2022-11-10T11:35:32;17.10;99.90
16643;DHT22;8435;52.184;5.406;2022-11-10T11:38:10;17.10;99.90
16643;DHT22;8435;52.184;5.406;2022-11-10T11:40:45;17.10;99.90
16643;DHT22;8435;52.184;5.406;2022-11-10T11:43:22;17.20;99.90
16643;DHT22;8435;52.184;5.406;2022-11-10T11:45:58;17.20;99.90
16643;DHT22;8435;52.184;5.406;2022-11-10T11:48:44;17.20;99.90
16643;DHT22;8435;52.184;5.406;2022-11-10T11:51:17;17.20;99.90
16643;DHT22;8435;52.184;5.406;2022-11-10T11:56:43;17.20;99.90
16643;DHT22;8435;52.184;5.406;2022-11-10T11:59:27;17.20;99.90
16643;DHT22;8435;52.184;5.406;2022-11-10T12:02:19;17.20;99.70
16643;DHT22;8435;52.184;5.406;2022-11-10T12:04:56;17.20;99.80
16643;DHT22;8435;52.184;5.406;2022-11-10T12:07:36;17.20;99.90
16643;DHT22;8435;52.184;5.406;2022-11-10T12:10:19;17.30;99.90
16643;DHT22;8435;52.184;5.406;2022-11-10T12:13:03;17.30;99.80
16643;DHT22;8435;52.184;5.406;2022-11-10T12:15:37;17.30;99.70
16643;DHT22;8435;52.184;5.406;2022-11-10T12:18:11;17.30;99.70
16643;DHT22;8435;52.184;5.406;2022-11-10T12:20:53;17.30;99.60
16643;DHT22;8435;52.184;5.406;2022-11-10T12:23:29;17.30;99.50
16643;DHT22;8435;52.184;5.406;2022-11-10T12:26:22;17.30;99.60
16643;DHT22;8435;52.184;5.406;2022-11-10T12:28:54;17.30;99.70
16643;DHT22;8435;52.184;5.406;2022-11-10T12:31:29;17.30;99.60
16643;DHT22;8435;52.184;5.406;2022-11-10T12:34:00;17.30;99.60
16643;DHT22;8435;52.184;5.406;2022-11-10T12:36:32;17.30;99.60
16643;DHT22;8435;52.184;5.406;2022-11-10T12:39:03;17.30;99.50
16643;DHT22;8435;52.184;5.406;2022-11-10T12:41:36;17.30;99.80
16643;DHT22;8435;52.184;5.406;2022-11-10T12:44:11;17.40;99.40
16643;DHT22;8435;52.184;5.406;2022-11-10T12:46:40;17.40;99.40
16643;DHT22;8435;52.184;5.406;2022-11-10T12:49:15;17.40;99.40
16643;DHT22;8435;52.184;5.406;2022-11-10T12:51:49;17.40;99.30
16643;DHT22;8435;52.184;5.406;2022-11-10T12:54:19;17.40;99.10
16643;DHT22;8435;52.184;5.406;2022-11-10T12:56:49;17.40;99.20
16643;DHT22;8435;52.184;5.406;2022-11-10T12:59:31;17.50;99.10
16643;DHT22;8435;52.184;5.406;2022-11-10T13:02:04;17.50;99.00
16643;DHT22;8435;52.184;5.406;2022-11-10T13:04:32;17.50;99.10
16643;DHT22;8435;52.184;5.406;2022-11-10T13:07:02;17.50;99.10
16643;DHT22;8435;52.184;5.406;2022-11-10T13:09:31;17.50;99.10
16643;DHT22;8435;52.184;5.406;2022-11-10T13:14:46;17.40;98.70
16643;DHT22;8435;52.184;5.406;2022-11-10T13:17:52;17.50;98.80
16643;DHT22;8435;52.184;5.406;2022-11-10T13:20:45;17.40;98.70
16643;DHT22;8435;52.184;5.406;2022-11-10T13:23:25;17.40;98.60
16643;DHT22;8435;52.184;5.406;2022-11-10T13:25:55;17.40;98.70
16643;DHT22;8435;52.184;5.406;2022-11-10T13:28:59;17.40;98.90
16643;DHT22;8435;52.184;5.406;2022-11-10T13:31:47;17.40;98.60
16643;DHT22;8435;52.184;5.406;2022-11-10T13:34:27;17.40;98.70
16643;DHT22;8435;52.184;5.406;2022-11-10T13:36:54;17.40;98.80
16643;DHT22;8435;52.184;5.406;2022-11-10T13:39:25;17.40;98.80
16643;DHT22;8435;52.184;5.406;2022-11-10T13:41:59;17.40;98.80
16643;DHT22;8435;52.184;5.406;2022-11-10T13:44:27;17.40;98.60
16643;DHT22;8435;52.184;5.406;2022-11-10T13:47:13;17.40;98.70
16643;DHT22;8435;52.184;5.406;2022-11-10T13:49:53;17.40;98.50
16643;DHT22;8435;52.184;5.406;2022-11-10T13:52:26;17.40;98.50
16643;DHT22;8435;52.184;5.406;2022-11-10T13:55:10;17.40;98.60
16643;DHT22;8435;52.184;5.406;2022-11-10T13:57:50;17.40;98.50
16643;DHT22;8435;52.184;5.406;2022-11-10T14:00:24;17.50;98.60
16643;DHT22;8435;52.184;5.406;2022-11-10T14:02:54;17.50;98.60
16643;DHT22;8435;52.184;5.406;2022-11-10T14:05:57;17.40;98.50
16643;DHT22;8435;52.184;5.406;2022-11-10T14:08:35;17.50;98.20
16643;DHT22;8435;52.184;5.406;2022-11-10T14:11:11;17.50;98.30
16643;DHT22;8435;52.184;5.406;2022-11-10T14:13:42;17.40;98.20
16643;DHT22;8435;52.184;5.406;2022-11-10T14:16:16;17.50;98.30
16643;DHT22;8435;52.184;5.406;2022-11-10T14:18:51;17.50;98.30
16643;DHT22;8435;52.184;5.406;2022-11-10T14:21:25;17.40;98.20
16643;DHT22;8435;52.184;5.406;2022-11-10T14:23:55;17.40;98.30
16643;DHT22;8435;52.184;5.406;2022-11-10T14:26:30;17.50;98.40
16643;DHT22;8435;52.184;5.406;2022-11-10T14:32:04;17.40;98.20
16643;DHT22;8435;52.184;5.406;2022-11-10T14:34:44;17.50;98.20
16643;DHT22;8435;52.184;5.406;2022-11-10T14:37:15;17.50;98.20
16643;DHT22;8435;52.184;5.406;2022-11-10T14:39:43;17.40;98.10
16643;DHT22;8435;52.184;5.406;2022-11-10T14:42:14;17.40;98.40
16643;DHT22;8435;52.184;5.406;2022-11-10T14:44:43;17.40;98.10
16643;DHT22;8435;52.184;5.406;2022-11-10T14:47:13;17.40;98.20
16643;DHT22;8435;52.184;5.406;2022-11-10T14:49:40;17.40;98.20
16643;DHT22;8435;52.184;5.406;2022-11-10T14:52:10;17.40;98.30
16643;DHT22;8435;52.184;5.406;2022-11-10T14:54:43;17.40;98.20
16643;DHT22;8435;52.184;5.406;2022-11-10T14:57:16;17.40;98.10
16643;DHT22;8435;52.184;5.406;2022-11-10T14:59:44;17.40;98.10
16643;DHT22;8435;52.184;5.406;2022-11-10T15:02:14;17.40;98.20
16643;DHT22;8435;52.184;5.406;2022-11-10T15:04:42;17.30;98.10
16643;DHT22;8435;52.184;5.406;2022-11-10T15:07:10;17.30;98.10
16643;DHT22;8435;52.184;5.406;2022-11-10T15:09:36;17.30;98.10
16643;DHT22;8435;52.184;5.406;2022-11-10T15:12:20;17.20;98.10
16643;DHT22;8435;52.184;5.406;2022-11-10T15:14:56;17.10;97.90
16643;DHT22;8435;52.184;5.406;2022-11-10T15:17:44;17.10;97.90
16643;DHT22;8435;52.184;5.406;2022-11-10T15:20:33;17.10;98.00
16643;DHT22;8435;52.184;5.406;2022-11-10T15:23:02;17.00;98.00
16643;DHT22;8435;52.184;5.406;2022-11-10T15:25:35;16.90;98.00
16643;DHT22;8435;52.184;5.406;2022-11-10T15:28:13;16.80;98.00
16643;DHT22;8435;52.184;5.406;2022-11-10T15:30:50;16.80;98.10
16643;DHT22;8435;52.184;5.406;2022-11-10T15:33:22;16.70;98.00
16643;DHT22;8435;52.184;5.406;2022-11-10T15:35:50;16.70;98.10
16643;DHT22;8435;52.184;5.406;2022-11-10T15:38:31;16.60;98.20
16643;DHT22;8435;52.184;5.406;2022-11-10T15:41:10;16.60;98.30
16643;DHT22;8435;52.184;5.406;2022-11-10T15:43:38;16.50;98.30
16643;DHT22;8435;52.184;5.406;2022-11-10T15:46:14;16.50;98.40
16643;DHT22;8435;52.184;5.406;2022-11-10T15:48:42;16.50;98.50
16643;DHT22;8435;52.184;5.406;2022-11-10T15:51:12;16.40;98.50
16643;DHT22;8435;52.184;5.406;2022-11-10T15:53:41;16.50;98.50
16643;DHT22;8435;52.184;5.406;2022-11-10T15:56:11;16.40;98.50
16643;DHT22;8435;52.184;5.406;2022-11-10T15:58:47;16.40;98.60
16643;DHT22;8435;52.184;5.406;2022-11-10T16:01:14;16.40;98.60
16643;DHT22;8435;52.184;5.406;2022-11-10T16:03:41;16.30;98.60
16643;DHT22;8435;52.184;5.406;2022-11-10T16:06:10;16.30;98.60
16643;DHT22;8435;52.184;5.406;2022-11-10T16:08:37;16.30;98.60
16643;DHT22;8435;52.184;5.406;2022-11-10T16:11:04;16.30;98.70
16643;DHT22;8435;52.184;5.406;2022-11-10T16:13:37;16.30;98.70
16643;DHT22;8435;52.184;5.406;2022-11-10T16:16:06;16.30;98.70